Hunting Creek — WDF9526 — position and weather

sailwx.info

Track history (hours):
 
Tides and Currents Weather Stations Pressure Air Temp Water Temp Dewpoint Dewpoint Depression Visibility Wind Speed Wind Dir Waves Ship Positions

Hunting Creek

Owner: Vane Line Bunkering, Inc., Philadelphia, PA. More information available from US FCC via Universal Licensing System and Coast Guard Vessel Documentation Center.

Last reported at 2018-Jan-19 23:55 UTC. Time now 2018-Jan-21 16:28 UTC.
Position N 40°50' W 073°46'.

Length 31 m; draft 4.3 m.

Type: Towing. MMSI: 367506050.

Date/timePositionNaut miles runAvg speedWind from/ knotsBaromVisibWave heightAir tempDewpointWater temp
2018-Jan-19 23:55N 40°50' W 073°46'3 6.5
2018-Jan-19 23:30N 40°48' W 073°49'4 7.6
2018-Jan-19 23:00N 40°48' W 073°54'3 6.7
2018-Jan-19 22:30N 40°46' W 073°57'3 6.6
2018-Jan-19 22:01N 40°43' W 073°58'3 6.8
2018-Jan-19 21:31N 40°41' W 074°02'4 7.1
2018-Jan-19 21:00N 40°39' W 074°06'4 7.8
2018-Jan-19 20:29N 40°39' W 074°11'3 6.6
2018-Jan-19 19:58N 40°35' W 074°12'3 6.0
2018-Jan-19 19:29N 40°33' W 074°15'1 1.4
2018-Jan-19 18:56N 40°32' W 074°15'0 0.1
2018-Jan-19 16:27N 40°33' W 074°15'0 0.0
2018-Jan-19 15:53N 40°33' W 074°15'0 0.3
2018-Jan-19 15:23N 40°33' W 074°15'1 1.8
2018-Jan-19 14:47N 40°33' W 074°14'0 0.1
2018-Jan-19 14:29N 40°33' W 074°14'1 1.7
2018-Jan-19 13:54N 40°33' W 074°15'1 1.8
2018-Jan-19 13:21N 40°33' W 074°14'2 4.9
2018-Jan-19 13:00N 40°35' W 074°13'3 5.5
2018-Jan-19 12:29N 40°38' W 074°12'1 2.0
2018-Jan-19 12:00N 40°38' W 074°12'0 0.0
2018-Jan-19 11:31N 40°38' W 074°12'1 2.3
2018-Jan-19 11:00N 40°39' W 074°10'510.3
2018-Jan-19 10:31N 40°39' W 074°04'3 5.7
2018-Jan-19 10:01N 40°40' W 074°00'0 0.0
2018-Jan-19 09:30N 40°40' W 074°00'2 4.6
2018-Jan-19 09:01N 40°39' W 074°03'3 5.6
2018-Jan-19 08:31N 40°39' W 074°06'0 0.6
2018-Jan-19 07:59N 40°39' W 074°06'0 1.0
2018-Jan-19 07:30N 40°39' W 074°05'3 5.5
2018-Jan-19 07:00N 40°39' W 074°02'2 3.0
2018-Jan-19 06:30N 40°40' W 074°00'0 0.0
2018-Jan-19 06:01N 40°40' W 074°00'0 0.0
2018-Jan-19 05:31N 40°40' W 074°00'0 0.0
2018-Jan-19 05:01N 40°40' W 074°00'0 0.0
2018-Jan-19 04:31N 40°40' W 074°00'0 0.0
2018-Jan-19 03:59N 40°40' W 074°00'0 0.3
2018-Jan-19 03:31N 40°40' W 074°00'5 8.8
2018-Jan-19 03:00N 40°39' W 074°06'0 0.1
2018-Jan-19 02:30N 40°39' W 074°06'0 0.8
2018-Jan-19 02:01N 40°39' W 074°07'0 0.0
2018-Jan-19 01:30N 40°39' W 074°07'3 6.6
2018-Jan-19 01:01N 40°39' W 074°02'1 2.7
2018-Jan-19 00:31N 40°40' W 074°01'1 1.5
2018-Jan-19 00:01N 40°40' W 074°00'0 0.0
2018-Jan-18 23:30N 40°40' W 074°00'0 0.0
2018-Jan-18 23:01N 40°40' W 074°00'0 0.0
2018-Jan-18 22:31N 40°40' W 074°00'0 0.0
2018-Jan-18 22:00N 40°40' W 074°00'0 0.5
2018-Jan-18 21:31N 40°40' W 074°00'2 3.0
2018-Jan-18 21:01N 40°41' W 074°02'612.4
2018-Jan-18 20:31N 40°47' W 073°60'611.6
2018-Jan-18 20:00N 40°52' W 073°56'5 9.5
2018-Jan-18 19:28N 40°57' W 073°54'  
2018-Jan-12 14:59N 40°56' W 073°55'0 0.0
2018-Jan-12 14:30N 40°56' W 073°55'0 0.0
2018-Jan-12 13:57N 40°56' W 073°55'0 0.0
2018-Jan-12 13:28N 40°56' W 073°55'0 0.0
2018-Jan-12 12:59N 40°56' W 073°55'0 0.0
2018-Jan-12 12:25N 40°56' W 073°55'0 0.2
2018-Jan-12 11:55N 40°56' W 073°55'0 0.0
2018-Jan-12 11:30N 40°56' W 073°55'0 0.0
2018-Jan-12 10:59N 40°56' W 073°55'0 0.1
2018-Jan-12 10:30N 40°56' W 073°55'0 0.1
2018-Jan-12 09:58N 40°56' W 073°55'0 0.0
2018-Jan-12 09:29N 40°56' W 073°55'0 0.0
2018-Jan-12 08:57N 40°56' W 073°55'0 0.1
2018-Jan-12 08:30N 40°56' W 073°55'0 0.3
2018-Jan-12 07:59N 40°56' W 073°55'0 0.0
2018-Jan-12 07:13N 40°56' W 073°55'0 0.0
2018-Jan-12 06:55N 40°56' W 073°55'0 0.0
2018-Jan-12 06:23N 40°56' W 073°55'0 0.1
2018-Jan-12 05:55N 40°56' W 073°55'0 0.0
2018-Jan-12 05:27N 40°56' W 073°55'0 0.0
2018-Jan-12 04:59N 40°56' W 073°55'0 0.0
2018-Jan-12 04:27N 40°56' W 073°55'0 0.0
2018-Jan-12 04:00N 40°56' W 073°55'0 0.0
2018-Jan-12 03:25N 40°56' W 073°55'0 0.2
2018-Jan-12 02:59N 40°56' W 073°55'11 4.0
2018-Jan-12 00:13N 40°46' W 074°01'2 9.1
2018-Jan-12 00:00N 40°44' W 074°01'4 8.3
2018-Jan-11 23:30N 40°40' W 074°03'3 5.3
2018-Jan-11 23:00N 40°39' W 074°06'2 0.3
2018-Jan-11 15:54N 40°40' W 074°08'0 0.0
2018-Jan-11 15:30N 40°40' W 074°08'3 5.0
2018-Jan-11 15:00N 40°39' W 074°06'0 0.5
2018-Jan-11 14:30N 40°39' W 074°05'1 2.0
2018-Jan-11 13:54N 40°40' W 074°05'0 0.0
2018-Jan-11 13:29N 40°40' W 074°05'0 0.0
2018-Jan-11 12:01N 40°40' W 074°05'0 0.3
2018-Jan-11 12:00N 40°40' W 074°05'0 0.0
2018-Jan-11 11:14N 40°40' W 074°05'0 0.0
2018-Jan-11 10:51N 40°40' W 074°05'0 0.0
2018-Jan-11 10:05N 40°40' W 074°05'0 0.0
2018-Jan-11 09:57N 40°40' W 074°05'1 2.0
2018-Jan-11 09:30N 40°40' W 074°04'3 0.8
2018-Jan-11 05:36N 40°39' W 074°08'110.4
2018-Jan-11 05:30N 40°39' W 074°07'5 9.2
2018-Jan-11 05:00N 40°41' W 074°01'1 1.6
2018-Jan-11 04:30N 40°41' W 074°00'2 4.5
2018-Jan-11 04:00N 40°40' W 074°03'2 4.4
2018-Jan-11 03:29N 40°38' W 074°03'2 4.6
2018-Jan-11 03:01N 40°40' W 074°04'0 0.0
2018-Jan-11 02:30N 40°40' W 074°04'0 0.0
2018-Jan-11 02:00N 40°40' W 074°04'0 0.0
2018-Jan-11 01:30N 40°40' W 074°04'0 0.0
2018-Jan-11 01:00N 40°40' W 074°04'0 0.0
2018-Jan-11 00:30N 40°40' W 074°04'0 0.0
2018-Jan-11 00:00N 40°40' W 074°04'0 0.0
2018-Jan-10 23:30N 40°40' W 074°04'2 2.4
2018-Jan-10 22:48N 40°39' W 074°06'2 6.3
2018-Jan-10 22:30N 40°40' W 074°04'3 6.6
2018-Jan-10 22:00N 40°41' W 074°00'0 0.0
2018-Jan-10 21:30N 40°41' W 074°00'4 7.4
2018-Jan-10 21:00N 40°40' W 074°05'0 0.3
2018-Jan-10 20:28N 40°40' W 074°05'0 0.0
2018-Jan-10 20:00N 40°40' W 074°05'0 0.0
2018-Jan-10 19:29N 40°40' W 074°05'2 3.4
2018-Jan-10 19:00N 40°40' W 074°03'3 5.0
2018-Jan-10 18:30N 40°39' W 074°06'3 4.7
2018-Jan-10 17:57N 40°40' W 074°08'1 0.7
2018-Jan-10 16:18N 40°41' W 074°10'0 0.0
2018-Jan-10 15:56N 40°41' W 074°10'1 0.3
2018-Jan-10 13:37N 40°41' W 074°09'0 0.5
2018-Jan-10 13:28N 40°41' W 074°09'1 1.1
2018-Jan-10 12:59N 40°41' W 074°09'3 5.5
2018-Jan-10 12:30N 40°39' W 074°08'4 8.3
2018-Jan-10 12:00N 40°39' W 074°03'2 3.9
2018-Jan-10 11:30N 40°40' W 074°00'0 0.5
2018-Jan-10 11:00N 40°40' W 074°00'0 0.1
2018-Jan-10 10:30N 40°40' W 074°00'0 0.0
2018-Jan-10 10:00N 40°40' W 074°00'0 0.0
2018-Jan-10 09:30N 40°40' W 074°00'0 0.0
2018-Jan-10 09:00N 40°40' W 074°00'0 0.6
2018-Jan-10 08:30N 40°40' W 074°00'2 4.1
2018-Jan-10 08:00N 40°39' W 074°03'3 5.8
2018-Jan-10 07:30N 40°39' W 074°07'2 4.1
2018-Jan-10 07:01N 40°40' W 074°04'1 2.4
2018-Jan-10 06:30N 40°39' W 074°03'3 6.1
2018-Jan-10 06:00N 40°41' W 074°00'0 0.1
2018-Jan-10 05:30N 40°42' W 074°00'1 2.9
2018-Jan-10 05:00N 40°43' W 074°02'4 8.2
2018-Jan-10 04:30N 40°47' W 074°00'  
Track history (hours):
 
Tides and Currents Weather Stations Pressure Air Temp Water Temp Dewpoint Dewpoint Depression Visibility Wind Speed Wind Dir Waves Ship Positions

Hunting Creek

Owner: Vane Line Bunkering, Inc., Philadelphia, PA. More information available from US FCC via Universal Licensing System and Coast Guard Vessel Documentation Center.

Last reported at 2018-Jan-19 23:55 UTC. Time now 2018-Jan-21 16:28 UTC.
Position N 40°50' W 073°46'.

Length 31 m; draft 4.3 m.

Type: Towing. MMSI: 367506050.

Date/timePositionNaut miles runAvg speedWind from/ knotsBaromVisibWave heightAir tempDewpointWater temp
2018-Jan-19 23:55N 40°50' W 073°46'3 6.5
2018-Jan-19 23:30N 40°48' W 073°49'4 7.6
2018-Jan-19 23:00N 40°48' W 073°54'3 6.7
2018-Jan-19 22:30N 40°46' W 073°57'3 6.6
2018-Jan-19 22:01N 40°43' W 073°58'3 6.8
2018-Jan-19 21:31N 40°41' W 074°02'4 7.1
2018-Jan-19 21:00N 40°39' W 074°06'4 7.8
2018-Jan-19 20:29N 40°39' W 074°11'3 6.6
2018-Jan-19 19:58N 40°35' W 074°12'3 6.0
2018-Jan-19 19:29N 40°33' W 074°15'1 1.4
2018-Jan-19 18:56N 40°32' W 074°15'0 0.1
2018-Jan-19 16:27N 40°33' W 074°15'0 0.0
2018-Jan-19 15:53N 40°33' W 074°15'0 0.3
2018-Jan-19 15:23N 40°33' W 074°15'1 1.8
2018-Jan-19 14:47N 40°33' W 074°14'0 0.1
2018-Jan-19 14:29N 40°33' W 074°14'1 1.7
2018-Jan-19 13:54N 40°33' W 074°15'1 1.8
2018-Jan-19 13:21N 40°33' W 074°14'2 4.9
2018-Jan-19 13:00N 40°35' W 074°13'3 5.5
2018-Jan-19 12:29N 40°38' W 074°12'1 2.0
2018-Jan-19 12:00N 40°38' W 074°12'0 0.0
2018-Jan-19 11:31N 40°38' W 074°12'1 2.3
2018-Jan-19 11:00N 40°39' W 074°10'510.3
2018-Jan-19 10:31N 40°39' W 074°04'3 5.7
2018-Jan-19 10:01N 40°40' W 074°00'0 0.0
2018-Jan-19 09:30N 40°40' W 074°00'2 4.6
2018-Jan-19 09:01N 40°39' W 074°03'3 5.6
2018-Jan-19 08:31N 40°39' W 074°06'0 0.6
2018-Jan-19 07:59N 40°39' W 074°06'0 1.0
2018-Jan-19 07:30N 40°39' W 074°05'3 5.5
2018-Jan-19 07:00N 40°39' W 074°02'2 3.0
2018-Jan-19 06:30N 40°40' W 074°00'0 0.0
2018-Jan-19 06:01N 40°40' W 074°00'0 0.0
2018-Jan-19 05:31N 40°40' W 074°00'0 0.0
2018-Jan-19 05:01N 40°40' W 074°00'0 0.0
2018-Jan-19 04:31N 40°40' W 074°00'0 0.0
2018-Jan-19 03:59N 40°40' W 074°00'0 0.3
2018-Jan-19 03:31N 40°40' W 074°00'5 8.8
2018-Jan-19 03:00N 40°39' W 074°06'0 0.1
2018-Jan-19 02:30N 40°39' W 074°06'0 0.8
2018-Jan-19 02:01N 40°39' W 074°07'0 0.0
2018-Jan-19 01:30N 40°39' W 074°07'3 6.6
2018-Jan-19 01:01N 40°39' W 074°02'1 2.7
2018-Jan-19 00:31N 40°40' W 074°01'1 1.5
2018-Jan-19 00:01N 40°40' W 074°00'0 0.0
2018-Jan-18 23:30N 40°40' W 074°00'0 0.0
2018-Jan-18 23:01N 40°40' W 074°00'0 0.0
2018-Jan-18 22:31N 40°40' W 074°00'0 0.0
2018-Jan-18 22:00N 40°40' W 074°00'0 0.5
2018-Jan-18 21:31N 40°40' W 074°00'2 3.0
2018-Jan-18 21:01N 40°41' W 074°02'612.4
2018-Jan-18 20:31N 40°47' W 073°60'611.6
2018-Jan-18 20:00N 40°52' W 073°56'5 9.5
2018-Jan-18 19:28N 40°57' W 073°54'  
2018-Jan-12 14:59N 40°56' W 073°55'0 0.0
2018-Jan-12 14:30N 40°56' W 073°55'0 0.0
2018-Jan-12 13:57N 40°56' W 073°55'0 0.0
2018-Jan-12 13:28N 40°56' W 073°55'0 0.0
2018-Jan-12 12:59N 40°56' W 073°55'0 0.0
2018-Jan-12 12:25N 40°56' W 073°55'0 0.2
2018-Jan-12 11:55N 40°56' W 073°55'0 0.0
2018-Jan-12 11:30N 40°56' W 073°55'0 0.0
2018-Jan-12 10:59N 40°56' W 073°55'0 0.1
2018-Jan-12 10:30N 40°56' W 073°55'0 0.1
2018-Jan-12 09:58N 40°56' W 073°55'0 0.0
2018-Jan-12 09:29N 40°56' W 073°55'0 0.0
2018-Jan-12 08:57N 40°56' W 073°55'0 0.1
2018-Jan-12 08:30N 40°56' W 073°55'0 0.3
2018-Jan-12 07:59N 40°56' W 073°55'0 0.0
2018-Jan-12 07:13N 40°56' W 073°55'0 0.0
2018-Jan-12 06:55N 40°56' W 073°55'0 0.0
2018-Jan-12 06:23N 40°56' W 073°55'0 0.1
2018-Jan-12 05:55N 40°56' W 073°55'0 0.0
2018-Jan-12 05:27N 40°56' W 073°55'0 0.0
2018-Jan-12 04:59N 40°56' W 073°55'0 0.0
2018-Jan-12 04:27N 40°56' W 073°55'0 0.0
2018-Jan-12 04:00N 40°56' W 073°55'0 0.0
2018-Jan-12 03:25N 40°56' W 073°55'0 0.2
2018-Jan-12 02:59N 40°56' W 073°55'11 4.0
2018-Jan-12 00:13N 40°46' W 074°01'2 9.1
2018-Jan-12 00:00N 40°44' W 074°01'4 8.3
2018-Jan-11 23:30N 40°40' W 074°03'3 5.3
2018-Jan-11 23:00N 40°39' W 074°06'2 0.3
2018-Jan-11 15:54N 40°40' W 074°08'0 0.0
2018-Jan-11 15:30N 40°40' W 074°08'3 5.0
2018-Jan-11 15:00N 40°39' W 074°06'0 0.5
2018-Jan-11 14:30N 40°39' W 074°05'1 2.0
2018-Jan-11 13:54N 40°40' W 074°05'0 0.0
2018-Jan-11 13:29N 40°40' W 074°05'0 0.0
2018-Jan-11 12:01N 40°40' W 074°05'0 0.3
2018-Jan-11 12:00N 40°40' W 074°05'0 0.0
2018-Jan-11 11:14N 40°40' W 074°05'0 0.0
2018-Jan-11 10:51N 40°40' W 074°05'0 0.0
2018-Jan-11 10:05N 40°40' W 074°05'0 0.0
2018-Jan-11 09:57N 40°40' W 074°05'1 2.0
2018-Jan-11 09:30N 40°40' W 074°04'3 0.8
2018-Jan-11 05:36N 40°39' W 074°08'110.4
2018-Jan-11 05:30N 40°39' W 074°07'5 9.2
2018-Jan-11 05:00N 40°41' W 074°01'1 1.6
2018-Jan-11 04:30N 40°41' W 074°00'2 4.5
2018-Jan-11 04:00N 40°40' W 074°03'2 4.4
2018-Jan-11 03:29N 40°38' W 074°03'2 4.6
2018-Jan-11 03:01N 40°40' W 074°04'0 0.0
2018-Jan-11 02:30N 40°40' W 074°04'0 0.0
2018-Jan-11 02:00N 40°40' W 074°04'0 0.0
2018-Jan-11 01:30N 40°40' W 074°04'0 0.0
2018-Jan-11 01:00N 40°40' W 074°04'0 0.0
2018-Jan-11 00:30N 40°40' W 074°04'0 0.0
2018-Jan-11 00:00N 40°40' W 074°04'0 0.0
2018-Jan-10 23:30N 40°40' W 074°04'2 2.4
2018-Jan-10 22:48N 40°39' W 074°06'2 6.3
2018-Jan-10 22:30N 40°40' W 074°04'3 6.6
2018-Jan-10 22:00N 40°41' W 074°00'0 0.0
2018-Jan-10 21:30N 40°41' W 074°00'4 7.4
2018-Jan-10 21:00N 40°40' W 074°05'0 0.3
2018-Jan-10 20:28N 40°40' W 074°05'0 0.0
2018-Jan-10 20:00N 40°40' W 074°05'0 0.0
2018-Jan-10 19:29N 40°40' W 074°05'2 3.4
2018-Jan-10 19:00N 40°40' W 074°03'3 5.0
2018-Jan-10 18:30N 40°39' W 074°06'3 4.7
2018-Jan-10 17:57N 40°40' W 074°08'1 0.7
2018-Jan-10 16:18N 40°41' W 074°10'0 0.0
2018-Jan-10 15:56N 40°41' W 074°10'1 0.3
2018-Jan-10 13:37N 40°41' W 074°09'0 0.5
2018-Jan-10 13:28N 40°41' W 074°09'1 1.1
2018-Jan-10 12:59N 40°41' W 074°09'3 5.5
2018-Jan-10 12:30N 40°39' W 074°08'4 8.3
2018-Jan-10 12:00N 40°39' W 074°03'2 3.9
2018-Jan-10 11:30N 40°40' W 074°00'0 0.5
2018-Jan-10 11:00N 40°40' W 074°00'0 0.1
2018-Jan-10 10:30N 40°40' W 074°00'0 0.0
2018-Jan-10 10:00N 40°40' W 074°00'0 0.0
2018-Jan-10 09:30N 40°40' W 074°00'0 0.0
2018-Jan-10 09:00N 40°40' W 074°00'0 0.6
2018-Jan-10 08:30N 40°40' W 074°00'2 4.1
2018-Jan-10 08:00N 40°39' W 074°03'3 5.8
2018-Jan-10 07:30N 40°39' W 074°07'2 4.1
2018-Jan-10 07:01N 40°40' W 074°04'1 2.4
2018-Jan-10 06:30N 40°39' W 074°03'3 6.1
2018-Jan-10 06:00N 40°41' W 074°00'0 0.1
2018-Jan-10 05:30N 40°42' W 074°00'1 2.9
2018-Jan-10 05:00N 40°43' W 074°02'4 8.2
2018-Jan-10 04:30N 40°47' W 074°00'  

Dump ship's entire track history